Time;durP1;ratioP1;P1;durP2;ratioP2;P2;SDS_P1;SDS_P2;PMS_P1;PMS_P2;Temp;Humidity;BMP_temperature;BMP_pressure;BME280_temperature;BME280_humidity;BME280_pressure;Samples;Min_cycle;Max_cycle;Signal;HPM_P1;HPM_P2
2022/08/01 00:00:38;;;;;;;20.60;9.98;;;;;;;21.21;77.80;100230.84;1939677;74;21037;-65
2022/08/01 00:03:07;;;;;;;17.50;8.48;;;;;;;21.17;77.65;100232.95;1939637;74;21209;-65
2022/08/01 00:05:35;;;;;;;24.00;9.15;;;;;;;21.13;77.52;100235.53;1939765;74;21095;-65
2022/08/01 00:08:04;;;;;;;22.15;9.78;;;;;;;21.11;77.37;100233.50;1939693;74;21103;-65
2022/08/01 00:10:33;;;;;;;21.68;12.15;;;;;;;21.05;77.89;100239.92;1939778;74;21099;-67
2022/08/01 00:13:02;;;;;;;23.18;10.90;;;;;;;20.92;78.87;100238.85;1939737;74;21033;-66
2022/08/01 00:15:32;;;;;;;21.15;10.78;;;;;;;20.82;79.49;100245.03;1939581;74;21032;-66
2022/08/01 00:18:00;;;;;;;20.15;9.78;;;;;;;20.75;79.73;100243.89;1939616;74;21516;-66
2022/08/01 00:20:29;;;;;;;18.52;8.28;;;;;;;20.69;79.70;100246.26;1939716;74;21111;-66
2022/08/01 00:22:58;;;;;;;21.30;9.03;;;;;;;20.63;79.57;100244.98;1939568;74;21202;-66
2022/08/01 00:25:26;;;;;;;25.68;10.55;;;;;;;20.59;79.42;100250.23;1939743;74;21013;-66
2022/08/01 00:27:55;;;;;;;20.08;10.43;;;;;;;20.52;79.81;100246.40;1939615;74;21454;-66
2022/08/01 00:30:24;;;;;;;19.85;9.75;;;;;;;20.47;80.37;100242.78;1939654;74;21472;-66
2022/08/01 00:32:53;;;;;;;21.00;9.43;;;;;;;20.43;80.46;100240.03;1939885;74;21460;-66
2022/08/01 00:35:22;;;;;;;17.48;9.38;;;;;;;20.39;80.48;100235.94;1939632;74;21095;-66
2022/08/01 00:37:51;;;;;;;17.75;9.35;;;;;;;20.39;80.46;100239.45;1939718;74;21025;-66
2022/08/01 00:40:20;;;;;;;22.22;11.00;;;;;;;20.40;80.53;100233.64;1939570;74;21532;-67
2022/08/01 00:42:48;;;;;;;22.87;10.28;;;;;;;20.42;80.66;100236.52;1939632;74;21077;-65
2022/08/01 00:45:17;;;;;;;20.65;9.70;;;;;;;20.41;80.92;100233.47;1939746;74;21064;-65
2022/08/01 00:47:45;;;;;;;19.90;10.40;;;;;;;20.41;80.60;100236.15;1939699;74;21095;-66
2022/08/01 00:50:14;;;;;;;21.55;10.55;;;;;;;20.39;80.57;100225.25;1939902;74;21511;-65
2022/08/01 00:52:44;;;;;;;20.00;9.85;;;;;;;20.36;80.39;100225.04;1939690;73;21045;-65
2022/08/01 00:55:14;;;;;;;23.45;9.65;;;;;;;20.33;80.40;100222.63;1939584;74;21467;-65
2022/08/01 00:57:43;;;;;;;24.45;10.72;;;;;;;20.32;80.51;100221.42;1939991;74;21424;-66
2022/08/01 01:00:13;;;;;;;25.57;10.63;;;;;;;20.32;80.86;100219.58;1939757;74;21029;-65
2022/08/01 01:02:41;;;;;;;21.15;10.93;;;;;;;20.31;80.84;100219.25;1939933;74;21095;-65
2022/08/01 01:05:10;;;;;;;24.20;11.45;;;;;;;20.29;81.02;100216.33;1939979;74;21033;-65
2022/08/01 01:07:47;;;;;;;21.00;10.45;;;;;;;20.24;81.25;100218.93;1939565;74;21037;-66
2022/08/01 01:10:22;;;;;;;21.52;11.30;;;;;;;20.21;81.20;100225.03;1928006;74;21033;-65
2022/08/01 01:13:12;;;;;;;22.05;9.95;;;;;;;20.15;81.23;100221.08;1939816;74;21037;-65
2022/08/01 01:15:46;;;;;;;23.67;10.25;;;;;;;20.10;81.51;100219.29;1872964;74;21033;-65
2022/08/01 01:18:17;;;;;;;24.57;11.70;;;;;;;20.08;81.33;100227.93;1939894;74;21532;-65
2022/08/01 01:20:49;;;;;;;21.57;11.25;;;;;;;20.10;81.14;100221.13;1939174;74;21472;-66
2022/08/01 01:23:23;;;;;;;21.77;10.58;;;;;;;20.07;80.86;100223.59;1939074;73;21198;-65
2022/08/01 01:26:23;;;;;;;20.50;9.80;;;;;;;20.05;80.69;100225.05;1938176;74;21119;-65
2022/08/01 01:29:14;;;;;;;22.85;10.58;;;;;;;20.05;80.49;100236.23;1938192;74;21452;-65
2022/08/01 01:31:52;;;;;;;20.55;9.75;;;;;;;20.03;80.24;100239.04;1938643;74;21037;-65
2022/08/01 01:34:22;;;;;;;20.97;9.88;;;;;;;20.01;80.20;100235.66;1939116;74;21021;-66
2022/08/01 01:36:54;;;;;;;20.23;10.68;;;;;;;19.99;80.37;100230.94;1939109;73;21033;-65
2022/08/01 01:39:26;;;;;;;21.65;10.43;;;;;;;19.97;80.45;100226.19;1939227;74;21001;-65
2022/08/01 01:41:57;;;;;;;25.02;11.53;;;;;;;19.94;80.54;100223.80;1939115;74;20997;-65
2022/08/01 01:44:27;;;;;;;22.30;10.60;;;;;;;19.94;80.64;100221.13;1939202;74;21033;-66
2022/08/01 01:46:59;;;;;;;19.50;9.75;;;;;;;19.89;80.57;100224.69;1939124;74;21452;-66
2022/08/01 01:49:30;;;;;;;22.37;11.60;;;;;;;19.86;80.36;100228.95;1938995;74;21453;-66
2022/08/01 01:52:01;;;;;;;22.70;11.03;;;;;;;19.91;80.22;100225.89;1939199;74;21111;-65
2022/08/01 01:54:33;;;;;;;23.30;10.95;;;;;;;20.01;80.07;100227.64;1939225;74;21033;-65
2022/08/01 01:57:04;;;;;;;21.50;9.93;;;;;;;20.06;79.81;100228.06;1937946;74;21483;-66
2022/08/01 01:59:36;;;;;;;23.70;10.88;;;;;;;20.05;79.61;100229.06;1939030;74;21476;-66
2022/08/01 02:02:07;;;;;;;22.67;10.95;;;;;;;20.01;79.54;100232.98;1939101;74;21060;-67
2022/08/01 02:04:38;;;;;;;20.90;10.60;;;;;;;20.02;79.62;100234.66;1939243;74;21021;-66
2022/08/01 02:07:10;;;;;;;20.40;10.20;;;;;;;20.04;79.63;100238.05;1939091;74;21100;-65
2022/08/01 02:09:40;;;;;;;20.72;10.80;;;;;;;20.13;79.64;100242.25;1939192;74;21065;-65
2022/08/01 02:12:11;;;;;;;22.37;9.70;;;;;;;20.20;79.46;100238.06;1939048;73;21111;-65
2022/08/01 02:14:41;;;;;;;22.17;10.63;;;;;;;20.27;79.33;100237.88;1939093;74;21081;-65
2022/08/01 02:17:13;;;;;;;22.93;11.50;;;;;;;20.21;79.17;100241.07;1939084;74;21555;-65
2022/08/01 02:19:41;;;;;;;24.37;11.38;;;;;;;20.17;79.28;100246.34;1939011;74;21025;-65
2022/08/01 02:22:20;;;;;;;25.95;12.68;;;;;;;20.14;79.47;100250.61;1939212;74;21032;-65
2022/08/01 02:24:57;;;;;;;22.10;11.35;;;;;;;20.16;79.48;100249.51;1938988;74;21173;-65
2022/08/01 02:27:28;;;;;;;26.10;10.82;;;;;;;20.20;79.51;100258.11;1934854;73;21103;-65
2022/08/01 02:30:06;;;;;;;24.55;10.75;;;;;;;20.20;79.42;100250.92;1937930;74;21107;-65
2022/08/01 02:32:52;;;;;;;21.33;9.65;;;;;;;20.23;79.40;100252.01;1939230;74;21099;-66
2022/08/01 02:35:33;;;;;;;25.23;11.18;;;;;;;20.30;79.33;100250.13;1939041;74;21529;-66
2022/08/01 02:38:04;;;;;;;23.80;10.38;;;;;;;20.31;79.23;100256.67;1939081;74;20998;-65
2022/08/01 02:40:35;;;;;;;21.50;10.38;;;;;;;20.33;79.32;100256.05;1939276;74;21142;-66
2022/08/01 02:43:06;;;;;;;18.27;10.45;;;;;;;20.33;79.34;100255.20;1939014;74;21006;-66
2022/08/01 02:45:37;;;;;;;18.25;9.83;;;;;;;20.34;79.15;100255.05;1938991;74;21001;-67
2022/08/01 02:48:09;;;;;;;21.17;10.20;;;;;;;20.36;78.95;100257.13;1939154;74;21036;-66
2022/08/01 02:50:39;;;;;;;20.65;9.48;;;;;;;20.42;78.91;100261.92;1938017;74;21037;-65
2022/08/01 02:53:10;;;;;;;29.35;10.15;;;;;;;20.52;78.93;100260.61;1939228;74;21002;-65
2022/08/01 02:55:41;;;;;;;26.07;10.53;;;;;;;20.63;79.02;100267.72;1939078;74;21041;-66
2022/08/01 02:58:12;;;;;;;22.02;9.83;;;;;;;20.77;79.01;100266.50;1939083;74;21072;-66
2022/08/01 03:00:43;;;;;;;16.55;9.28;;;;;;;20.89;78.93;100264.55;1939048;74;21001;-66
2022/08/01 03:03:14;;;;;;;26.85;10.13;;;;;;;21.07;78.78;100266.89;1939157;74;21037;-66
2022/08/01 03:05:44;;;;;;;24.37;11.20;;;;;;;21.30;78.55;100279.53;1939309;74;21519;-66
2022/08/01 03:08:15;;;;;;;23.02;9.48;;;;;;;21.49;78.52;100270.67;1939070;74;21115;-66
2022/08/01 03:10:47;;;;;;;20.37;9.83;;;;;;;21.74;78.27;100277.75;1938991;74;21545;-66
2022/08/01 03:13:18;;;;;;;17.73;8.98;;;;;;;22.02;78.00;100269.79;1939042;74;21029;-66
2022/08/01 03:15:48;;;;;;;22.17;9.80;;;;;;;22.24;77.74;100275.30;1939160;74;21025;-66
2022/08/01 03:18:19;;;;;;;29.82;10.08;;;;;;;22.35;77.90;100266.63;1939051;74;21472;-65
2022/08/01 03:20:48;;;;;;;18.23;9.00;;;;;;;22.45;78.00;100267.08;1939094;74;21103;-66
2022/08/01 03:23:18;;;;;;;17.42;9.45;;;;;;;22.57;78.02;100269.88;1938987;74;21057;-66
2022/08/01 03:25:48;;;;;;;17.30;9.38;;;;;;;22.68;77.90;100272.36;1939840;74;21009;-66
2022/08/01 03:28:19;;;;;;;23.00;10.20;;;;;;;22.79;77.70;100271.83;1939757;74;21515;-66
2022/08/01 03:30:49;;;;;;;22.87;9.70;;;;;;;22.90;77.60;100273.78;1939669;74;21033;-66
2022/08/01 03:33:18;;;;;;;19.67;10.00;;;;;;;22.97;77.37;100272.69;1939757;74;21111;-66
2022/08/01 03:35:50;;;;;;;22.70;9.75;;;;;;;23.03;77.17;100282.81;1939615;74;21021;-66
2022/08/01 03:38:21;;;;;;;22.75;9.65;;;;;;;23.08;76.71;100283.24;1939855;74;21022;-65
2022/08/01 03:40:52;;;;;;;43.15;10.13;;;;;;;23.07;76.09;100286.95;1939696;74;21127;-65
2022/08/01 03:43:27;;;;;;;26.52;8.58;;;;;;;23.10;75.90;100280.41;1939966;74;20993;-65
2022/08/01 03:45:58;;;;;;;24.47;8.45;;;;;;;23.17;75.75;100283.34;1938103;74;21111;-68
2022/08/01 03:48:29;;;;;;;19.15;8.48;;;;;;;23.28;75.64;100277.74;1939882;74;21417;-66
2022/08/01 03:51:00;;;;;;;22.93;8.68;;;;;;;23.36;75.43;100276.45;1939925;74;21009;-66
2022/08/01 03:53:31;;;;;;;19.25;8.50;;;;;;;23.48;75.28;100277.92;1939837;74;21095;-66
2022/08/01 03:56:03;;;;;;;15.20;8.45;;;;;;;23.56;74.74;100278.98;1939713;74;21185;-66
2022/08/01 03:58:32;;;;;;;16.50;7.92;;;;;;;23.61;74.02;100283.38;1939552;74;21033;-67
2022/08/01 04:01:01;;;;;;;16.45;8.05;;;;;;;23.60;73.21;100288.42;1939637;74;21198;-66
2022/08/01 04:03:30;;;;;;;16.27;6.97;;;;;;;23.63;72.94;100289.47;1939732;74;21104;-66
2022/08/01 04:06:00;;;;;;;16.70;7.72;;;;;;;23.73;72.65;100286.67;1939742;74;21527;-65
2022/08/01 04:08:36;;;;;;;15.45;7.05;;;;;;;23.79;72.25;100286.04;1939708;74;21421;-66
2022/08/01 04:11:05;;;;;;;17.05;8.58;;;;;;;23.93;71.95;100297.61;1935781;74;21009;-68
2022/08/01 04:13:34;;;;;;;13.65;7.28;;;;;;;24.14;71.63;100290.50;1939680;74;20997;-67
2022/08/01 04:16:03;;;;;;;19.02;8.73;;;;;;;24.33;71.09;100284.55;1939691;74;21037;-66
2022/08/01 04:18:32;;;;;;;15.38;7.70;;;;;;;24.43;70.58;100292.84;1939671;74;21472;-66
2022/08/01 04:21:00;;;;;;;13.50;8.03;;;;;;;24.60;70.37;100292.44;1939619;74;21013;-65
2022/08/01 04:23:31;;;;;;;15.40;8.43;;;;;;;24.83;70.21;100289.18;1939658;74;21037;-65
2022/08/01 04:26:03;;;;;;;18.10;9.13;;;;;;;25.03;69.96;100293.27;1939201;74;21496;-66
2022/08/01 04:28:34;;;;;;;20.60;10.23;;;;;;;25.19;69.54;100289.75;1939322;74;21037;-66
2022/08/01 04:31:05;;;;;;;17.73;7.85;;;;;;;25.36;69.26;100290.66;1939131;74;21021;-65
2022/08/01 04:33:40;;;;;;;14.75;8.13;;;;;;;25.59;68.97;100294.03;1939055;74;21507;-66
2022/08/01 04:36:09;;;;;;;19.80;9.25;;;;;;;25.72;68.16;100287.63;1937723;74;21475;-66
2022/08/01 04:38:39;;;;;;;17.75;8.78;;;;;;;25.90;67.82;100289.30;1939111;74;21471;-66
2022/08/01 04:41:10;;;;;;;18.87;8.50;;;;;;;25.99;67.29;100291.01;1939064;74;21107;-66
2022/08/01 04:43:40;;;;;;;16.85;8.28;;;;;;;26.07;66.87;100297.72;1939054;74;21456;-66
2022/08/01 04:46:10;;;;;;;15.10;7.83;;;;;;;26.25;66.81;100288.59;1939014;74;21163;-66
2022/08/01 04:48:40;;;;;;;15.68;7.65;;;;;;;26.43;66.48;100289.69;1939097;74;21029;-66
2022/08/01 04:51:16;;;;;;;15.13;7.53;;;;;;;26.63;66.21;100292.86;1938997;74;21033;-65
2022/08/01 04:53:47;;;;;;;17.85;8.28;;;;;;;26.78;65.60;100287.03;1938956;74;21017;-66
2022/08/01 04:56:16;;;;;;;15.48;7.53;;;;;;;26.96;65.48;100294.39;1939080;74;21087;-66
2022/08/01 04:58:45;;;;;;;13.75;7.25;;;;;;;27.21;65.18;100295.58;1939004;74;21021;-66
2022/08/01 05:01:14;;;;;;;20.35;8.43;;;;;;;27.36;64.34;100295.67;1938921;74;21538;-66
2022/08/01 05:03:43;;;;;;;13.48;7.60;;;;;;;27.48;64.03;100291.53;1938960;74;21087;-66
2022/08/01 05:06:13;;;;;;;21.33;8.68;;;;;;;27.66;63.71;100284.95;1938971;74;21033;-66
2022/08/01 05:08:42;;;;;;;14.35;7.62;;;;;;;27.88;63.33;100282.70;1938938;74;21013;-66
2022/08/01 05:11:11;;;;;;;12.58;7.03;;;;;;;28.23;63.34;100286.27;1939074;74;21108;-66
2022/08/01 05:13:40;;;;;;;25.40;8.48;;;;;;;28.47;62.62;100288.69;1938985;73;21056;-66
2022/08/01 05:16:09;;;;;;;15.08;7.72;;;;;;;28.57;61.86;100288.94;1939118;74;21115;-67
2022/08/01 05:18:37;;;;;;;12.30;7.70;;;;;;;28.68;61.43;100289.81;1939119;74;21033;-66
2022/08/01 05:21:07;;;;;;;15.48;7.08;;;;;;;28.90;61.29;100296.11;1939020;73;21111;-66
2022/08/01 05:23:35;;;;;;;24.27;8.00;;;;;;;29.07;60.74;100297.58;1939117;74;21488;-66
2022/08/01 05:26:04;;;;;;;13.93;7.03;;;;;;;29.19;60.21;100303.35;1938834;74;21045;-66
2022/08/01 05:28:33;;;;;;;15.13;7.65;;;;;;;29.37;59.78;100296.66;1938983;74;21092;-66
2022/08/01 05:31:01;;;;;;;14.23;7.70;;;;;;;29.42;58.81;100296.92;1939112;74;21103;-66
2022/08/01 05:33:30;;;;;;;11.28;6.35;;;;;;;29.57;58.43;100303.11;1939024;74;21446;-66
2022/08/01 05:35:59;;;;;;;10.90;6.17;;;;;;;29.70;58.00;100299.67;1938960;74;21009;-66
2022/08/01 05:38:27;;;;;;;11.15;6.67;;;;;;;29.90;57.75;100297.15;1939207;74;21581;-66
2022/08/01 05:40:56;;;;;;;14.75;7.05;;;;;;;30.14;57.45;100297.73;1939024;73;21112;-66
2022/08/01 05:43:24;;;;;;;12.45;6.90;;;;;;;30.36;57.20;100299.36;1939026;74;21095;-66
2022/08/01 05:45:53;;;;;;;11.48;6.53;;;;;;;30.63;56.71;100298.12;1939102;74;21522;-66
2022/08/01 05:48:22;;;;;;;11.33;5.90;;;;;;;30.76;56.07;100298.69;1939108;74;21037;-66
2022/08/01 05:50:50;;;;;;;9.55;6.22;;;;;;;30.53;55.81;100291.70;1939238;74;21029;-66
2022/08/01 05:53:19;;;;;;;12.07;6.53;;;;;;;30.66;55.91;100295.00;1939005;74;21107;-66
2022/08/01 05:55:47;;;;;;;10.70;6.12;;;;;;;31.07;55.43;100290.04;1939147;74;21472;-66
2022/08/01 05:58:16;;;;;;;11.85;6.92;;;;;;;31.50;54.95;100292.95;1939268;74;21099;-66
2022/08/01 06:00:45;;;;;;;13.78;6.45;;;;;;;31.49;54.18;100298.10;1939111;74;20998;-65
2022/08/01 06:03:14;;;;;;;13.55;6.67;;;;;;;30.95;54.04;100293.03;1939071;74;21484;-66
2022/08/01 06:05:42;;;;;;;13.40;7.10;;;;;;;30.80;54.25;100297.23;1939320;74;21169;-67
2022/08/01 06:08:11;;;;;;;14.00;7.30;;;;;;;30.85;54.34;100293.92;1939180;74;21021;-66
2022/08/01 06:10:40;;;;;;;13.13;7.10;;;;;;;30.87;54.13;100289.12;1939129;74;21466;-66
2022/08/01 06:13:08;;;;;;;11.95;6.22;;;;;;;30.92;54.21;100289.38;1939240;74;21025;-66
2022/08/01 06:15:37;;;;;;;10.13;6.22;;;;;;;30.88;54.45;100279.94;1939109;74;21103;-66
2022/08/01 06:18:06;;;;;;;12.25;6.37;;;;;;;31.07;54.50;100272.37;1939096;74;21041;-66
2022/08/01 06:20:35;;;;;;;10.88;6.80;;;;;;;31.53;54.14;100278.41;1939012;74;21425;-66
2022/08/01 06:23:04;;;;;;;11.43;6.33;;;;;;;32.10;53.71;100269.82;1939104;74;21025;-66
2022/08/01 06:25:33;;;;;;;11.00;6.33;;;;;;;32.75;53.25;100267.63;1939005;73;21033;-66
2022/08/01 06:28:02;;;;;;;15.03;6.33;;;;;;;33.14;51.68;100268.47;1939873;74;21084;-66
2022/08/01 06:30:30;;;;;;;10.93;6.28;;;;;;;33.44;51.33;100262.70;1939781;74;21037;-66
2022/08/01 06:32:59;;;;;;;11.35;6.42;;;;;;;33.78;51.09;100257.80;1939666;74;21029;-66
2022/08/01 06:35:29;;;;;;;8.53;5.35;;;;;;;34.25;51.04;100248.31;1939889;74;21009;-66
2022/08/01 06:37:58;;;;;;;8.15;5.60;;;;;;;34.34;49.44;100256.50;1939972;74;21558;-66
2022/08/01 06:40:27;;;;;;;9.65;6.47;;;;;;;34.38;49.28;100253.10;1939865;74;21028;-66
2022/08/01 06:42:56;;;;;;;9.90;5.65;;;;;;;34.60;48.78;100250.72;1939713;74;21464;-66
2022/08/01 06:45:26;;;;;;;14.80;6.12;;;;;;;34.22;48.87;100257.27;1939740;73;21002;-67
2022/08/01 06:47:54;;;;;;;11.68;6.55;;;;;;;33.94;48.58;100258.27;1939831;74;21013;-66
2022/08/01 06:50:23;;;;;;;9.90;4.78;;;;;;;34.03;48.59;100249.58;1939814;74;21091;-66
2022/08/01 06:52:52;;;;;;;8.70;5.45;;;;;;;34.45;48.45;100246.16;1939868;74;21072;-66
2022/08/01 06:55:21;;;;;;;8.13;5.37;;;;;;;34.43;47.09;100254.59;1939730;74;21033;-66
2022/08/01 06:57:51;;;;;;;9.23;5.47;;;;;;;34.39;47.18;100254.75;1939797;74;21106;-66
2022/08/01 07:00:22;;;;;;;6.42;4.87;;;;;;;34.02;47.19;100256.63;1939754;74;21604;-66
2022/08/01 07:02:54;;;;;;;7.20;4.78;;;;;;;33.40;48.22;100256.02;1939970;74;21126;-66
2022/08/01 07:05:23;;;;;;;9.63;5.17;;;;;;;32.67;49.21;100260.00;1939863;74;21037;-66
2022/08/01 07:07:51;;;;;;;7.35;4.67;;;;;;;32.07;50.27;100257.98;1939735;74;21076;-66
2022/08/01 07:10:20;;;;;;;6.83;4.92;;;;;;;31.63;51.39;100259.47;1939733;74;21030;-66
2022/08/01 07:12:49;;;;;;;7.15;5.03;;;;;;;31.46;51.78;100263.11;1939825;74;21100;-66
2022/08/01 07:15:20;;;;;;;11.75;5.17;;;;;;;31.63;51.71;100263.05;1939953;73;21174;-66
2022/08/01 07:17:47;;;;;;;9.20;5.20;;;;;;;31.93;51.65;100259.34;1939856;73;21483;-66
2022/08/01 07:20:16;;;;;;;11.20;5.58;;;;;;;31.99;51.18;100265.83;1939776;74;21029;-66
2022/08/01 07:22:44;;;;;;;14.30;6.05;;;;;;;32.01;51.26;100261.53;1939689;74;21102;-67
2022/08/01 07:25:13;;;;;;;20.17;6.75;;;;;;;32.18;51.18;100263.30;1939651;74;21424;-66
2022/08/01 07:27:42;;;;;;;10.00;5.00;;;;;;;32.19;50.82;100268.54;1939294;74;21123;-67
2022/08/01 07:30:11;;;;;;;12.88;5.53;;;;;;;32.22;50.79;100269.48;1939110;74;21025;-66
2022/08/01 07:32:40;;;;;;;29.70;8.75;;;;;;;32.29;50.63;100268.91;1939297;74;21036;-66
2022/08/01 07:35:09;;;;;;;15.20;5.65;;;;;;;32.43;50.55;100260.19;1939084;74;21029;-66
2022/08/01 07:37:38;;;;;;;8.40;5.80;;;;;;;33.09;50.21;100260.94;1939088;74;21094;-66
2022/08/01 07:40:07;;;;;;;8.23;5.60;;;;;;;33.15;49.49;100255.98;1939096;74;21010;-66
2022/08/01 07:42:36;;;;;;;7.55;4.78;;;;;;;33.30;49.42;100263.84;1939171;73;21033;-66
2022/08/01 07:45:05;;;;;;;8.88;5.15;;;;;;;33.85;48.88;100259.94;1939051;74;21103;-65
2022/08/01 07:47:34;;;;;;;9.35;5.40;;;;;;;34.45;48.03;100261.20;1939073;74;21053;-66
2022/08/01 07:50:04;;;;;;;8.58;5.60;;;;;;;34.93;46.92;100257.64;1938969;74;21503;-66
2022/08/01 07:52:33;;;;;;;8.10;5.33;;;;;;;34.94;46.37;100263.42;1939180;73;21154;-66
2022/08/01 07:55:02;;;;;;;5.40;3.70;;;;;;;34.76;46.59;100258.00;1939123;74;21081;-66
2022/08/01 07:57:30;;;;;;;9.25;5.05;;;;;;;35.01;45.64;100256.50;1939092;74;21095;-66
2022/08/01 07:59:59;;;;;;;8.55;4.50;;;;;;;35.24;45.33;100256.28;1939027;74;21037;-66
2022/08/01 08:02:28;;;;;;;8.10;4.95;;;;;;;35.52;44.85;100266.55;1938992;73;21472;-66
2022/08/01 08:04:56;;;;;;;8.45;4.72;;;;;;;35.81;43.74;100259.89;1939006;73;21021;-66
2022/08/01 08:07:25;;;;;;;7.53;5.17;;;;;;;36.10;43.51;100260.27;1939138;74;21095;-66
2022/08/01 08:09:54;;;;;;;5.95;4.70;;;;;;;36.03;43.39;100255.45;1939096;74;21037;-67
2022/08/01 08:12:22;;;;;;;7.50;5.17;;;;;;;35.96;43.19;100257.48;1939200;74;21503;-66
2022/08/01 08:14:51;;;;;;;11.88;5.22;;;;;;;36.19;43.22;100261.29;1939076;74;21106;-66
2022/08/01 08:17:19;;;;;;;8.63;4.55;;;;;;;36.49;42.46;100259.20;1938968;73;21124;-66
2022/08/01 08:19:48;;;;;;;8.13;4.92;;;;;;;36.69;42.12;100257.98;1939066;74;21569;-67
2022/08/01 08:22:17;;;;;;;6.80;3.45;;;;;;;36.86;41.67;100253.36;1939127;74;21017;-67
2022/08/01 08:24:45;;;;;;;7.00;4.30;;;;;;;36.88;41.35;100254.48;1939092;74;21094;-67
2022/08/01 08:27:15;;;;;;;8.03;5.35;;;;;;;36.33;40.90;100253.10;1939031;73;21167;-67
2022/08/01 08:29:43;;;;;;;6.25;3.92;;;;;;;35.95;41.91;100254.46;1938914;73;21115;-67
2022/08/01 08:32:12;;;;;;;10.08;4.17;;;;;;;36.23;41.71;100252.91;1939039;74;21073;-66
2022/08/01 08:34:41;;;;;;;9.53;4.75;;;;;;;36.25;41.54;100245.27;1939051;74;21009;-66
2022/08/01 08:37:09;;;;;;;7.62;5.30;;;;;;;36.37;41.75;100248.80;1939055;74;21416;-66
2022/08/01 08:39:38;;;;;;;10.20;5.05;;;;;;;36.02;42.00;100244.73;1939067;74;20994;-66
2022/08/01 08:42:12;;;;;;;10.05;4.90;;;;;;;35.82;42.67;100242.36;1938953;74;21032;-67
2022/08/01 08:44:44;;;;;;;9.18;5.37;;;;;;;35.50;43.19;100251.73;1938982;74;21036;-67
2022/08/01 08:47:15;;;;;;;11.78;5.50;;;;;;;35.26;43.75;100242.66;1939273;74;21045;-67
2022/08/01 08:49:45;;;;;;;5.80;4.50;;;;;;;34.84;44.20;100249.45;1939030;74;21405;-67
2022/08/01 08:52:15;;;;;;;7.00;4.95;;;;;;;34.04;45.24;100249.03;1939166;74;21057;-67
2022/08/01 08:54:46;;;;;;;8.63;5.15;;;;;;;33.64;46.09;100257.58;1939132;74;21524;-67
2022/08/01 08:57:15;;;;;;;7.17;4.70;;;;;;;33.60;46.31;100254.45;1938995;74;21041;-67
2022/08/01 08:59:48;;;;;;;7.00;5.08;;;;;;;33.71;46.34;100248.84;1939001;74;21029;-67
2022/08/01 09:02:17;;;;;;;7.10;4.95;;;;;;;33.62;46.41;100247.42;1939171;74;21013;-66
2022/08/01 09:04:48;;;;;;;6.87;4.72;;;;;;;33.88;46.02;100252.36;1938993;74;21010;-67
2022/08/01 09:07:18;;;;;;;14.47;5.53;;;;;;;34.07;45.73;100255.42;1938988;74;21037;-67
2022/08/01 09:09:48;;;;;;;7.50;4.15;;;;;;;34.28;45.34;100245.13;1939082;74;21005;-67
2022/08/01 09:12:20;;;;;;;7.67;4.75;;;;;;;34.28;45.34;100245.13;1939042;74;21173;-66
2022/08/01 09:14:53;;;;;;;7.37;4.47;;;;;;;34.46;45.16;100265.61;1939170;74;21099;-66
2022/08/01 09:17:20;;;;;;;9.80;5.42;;;;;;;34.75;44.58;100263.16;1938832;74;21009;-66
2022/08/01 09:19:51;;;;;;;10.90;4.60;;;;;;;35.11;43.93;100263.59;1938997;74;21109;-66
2022/08/01 09:22:22;;;;;;;8.85;4.62;;;;;;;35.57;43.13;100259.84;1939333;74;21053;-66
2022/08/01 09:25:09;;;;;;;10.28;4.33;;;;;;;35.79;42.65;100260.12;1939439;74;21045;-66
2022/08/01 09:27:39;;;;;;;8.05;4.83;;;;;;;35.69;41.96;100258.49;1939153;74;21033;-66
2022/08/01 09:30:13;;;;;;;9.15;5.17;;;;;;;35.54;42.15;100250.21;1939096;74;21444;-66
2022/08/01 09:33:00;;;;;;;8.30;4.97;;;;;;;35.53;41.96;100238.13;1939196;74;21029;-66
2022/08/01 09:35:37;;;;;;;5.83;4.92;;;;;;;35.44;42.13;100249.95;1939124;74;21089;-66
2022/08/01 09:38:20;;;;;;;8.93;4.08;;;;;;;35.63;41.19;100243.82;1939231;74;21037;-66
2022/08/01 09:40:54;;;;;;;8.03;4.35;;;;;;;35.85;41.35;100248.74;1939228;74;21428;-66
2022/08/01 09:43:25;;;;;;;4.70;3.33;;;;;;;36.27;40.74;100259.56;1939107;73;21108;-66
2022/08/01 09:45:55;;;;;;;7.55;4.37;;;;;;;36.46;39.82;100254.73;1939067;74;21029;-66
2022/08/01 09:48:24;;;;;;;5.60;3.80;;;;;;;36.49;39.58;100255.63;1939216;74;21184;-66
2022/08/01 09:50:54;;;;;;;6.80;4.47;;;;;;;36.61;39.10;100259.69;1939029;74;21064;-66
2022/08/01 09:53:23;;;;;;;8.28;3.55;;;;;;;36.65;39.26;100256.75;1939229;74;21021;-66
2022/08/01 09:55:53;;;;;;;8.15;3.17;;;;;;;36.70;39.08;100266.48;1939107;73;21072;-66
2022/08/01 09:58:22;;;;;;;10.05;3.30;;;;;;;36.62;38.64;100255.89;1939338;74;21472;-66
2022/08/01 10:01:02;;;;;;;6.40;3.62;;;;;;;36.37;38.60;100258.39;1939180;73;21114;-66
2022/08/01 10:03:30;;;;;;;7.37;3.60;;;;;;;36.01;38.37;100246.64;1938998;74;21037;-67
2022/08/01 10:05:59;;;;;;;4.08;2.60;;;;;;;35.31;39.55;100252.37;1939113;74;21037;-67
2022/08/01 10:08:28;;;;;;;4.53;2.85;;;;;;;35.11;39.60;100242.24;1901626;74;21025;-68
2022/08/01 10:11:11;;;;;;;6.05;2.55;;;;;;;35.20;39.53;100239.50;1939106;74;21119;-68
2022/08/01 10:13:41;;;;;;;7.25;2.92;;;;;;;35.21;38.88;100241.15;1939122;74;21033;-68
2022/08/01 10:16:12;;;;;;;6.12;2.65;;;;;;;35.12;38.81;100234.31;1939091;74;21111;-67
2022/08/01 10:18:42;;;;;;;4.03;2.17;;;;;;;34.67;38.23;100244.31;1939166;73;21006;-67
2022/08/01 10:21:12;;;;;;;5.95;1.72;;;;;;;34.45;38.90;100255.73;1939182;74;21107;-67
2022/08/01 10:23:42;;;;;;;5.22;1.98;;;;;;;34.61;38.61;100255.64;1939276;74;21025;-67
2022/08/01 10:26:12;;;;;;;3.08;2.30;;;;;;;34.69;38.06;100273.12;1939083;74;21556;-69
2022/08/01 10:28:43;;;;;;;4.72;2.00;;;;;;;34.63;38.03;100269.09;1939024;74;21030;-67
2022/08/01 10:31:13;;;;;;;6.03;2.50;;;;;;;34.74;37.80;100260.14;1939789;74;21029;-67
2022/08/01 10:33:42;;;;;;;6.67;2.55;;;;;;;34.78;37.20;100266.27;1939819;74;21468;-67
2022/08/01 10:36:11;;;;;;;3.60;1.82;;;;;;;34.63;36.74;100254.88;1939784;74;21045;-67
2022/08/01 10:38:40;;;;;;;3.83;2.00;;;;;;;34.47;37.16;100261.80;1939767;74;21099;-67
2022/08/01 10:41:10;;;;;;;2.92;1.70;;;;;;;34.38;37.53;100268.13;1939725;74;21522;-67
2022/08/01 10:43:39;;;;;;;4.20;1.65;;;;;;;34.32;37.54;100268.20;1939746;74;21021;-67
2022/08/01 10:46:08;;;;;;;8.05;2.08;;;;;;;34.30;37.56;100256.12;1939830;74;21091;-67
2022/08/01 10:48:54;;;;;;;4.47;1.32;;;;;;;34.15;37.57;100264.67;1939784;74;21092;-67
2022/08/01 10:51:24;;;;;;;7.30;1.80;;;;;;;33.89;37.79;100258.14;1939381;74;21454;-67
2022/08/01 10:53:55;;;;;;;2.75;2.10;;;;;;;33.57;38.11;100260.89;1939897;74;21045;-67
2022/08/01 10:56:24;;;;;;;6.35;2.20;;;;;;;33.38;39.04;100262.73;1939886;74;21095;-67
2022/08/01 10:59:04;;;;;;;8.58;2.02;;;;;;;33.24;38.88;100264.74;1939902;74;21029;-67
2022/08/01 11:01:33;;;;;;;7.03;1.52;;;;;;;33.15;39.20;100262.80;1939913;74;21077;-67
2022/08/01 11:04:10;;;;;;;3.95;1.72;;;;;;;33.10;39.67;100265.31;1939769;74;21037;-67
2022/08/01 11:06:41;;;;;;;4.45;2.00;;;;;;;32.89;39.55;100263.78;1939723;74;21114;-67
2022/08/01 11:09:16;;;;;;;3.87;1.60;;;;;;;32.79;40.16;100263.41;1940053;74;21037;-67
2022/08/01 11:12:07;;;;;;;2.72;1.98;;;;;;;32.69;40.45;100253.80;1939979;74;21158;-66
2022/08/01 11:14:37;;;;;;;4.80;2.30;;;;;;;32.64;40.63;100256.34;1939727;74;21135;-66
2022/08/01 11:17:25;;;;;;;3.15;1.70;;;;;;;32.62;40.49;100262.54;1935586;74;21502;-66
2022/08/01 11:20:14;;;;;;;4.30;1.82;;;;;;;32.68;40.60;100264.92;1928673;74;21091;-67
2022/08/01 11:23:04;;;;;;;2.27;1.87;;;;;;;32.58;40.62;100269.48;1939630;74;21065;-67
2022/08/01 11:25:45;;;;;;;5.08;1.90;;;;;;;32.30;41.35;100259.70;1939838;74;21029;-68
2022/08/01 11:28:19;;;;;;;4.20;1.67;;;;;;;32.08;41.97;100269.20;1939704;74;21488;-67
2022/08/01 11:30:50;;;;;;;7.53;2.15;;;;;;;31.93;42.59;100262.06;1939648;74;21138;-67
2022/08/01 11:33:42;;;;;;;3.17;1.98;;;;;;;31.82;43.18;100254.55;1939791;74;21584;-67
2022/08/01 11:36:16;;;;;;;1.95;1.67;;;;;;;31.72;43.93;100254.13;1939768;74;21472;-68